Time;durP1;ratioP1;P1;durP2;ratioP2;P2;SDS_P1;SDS_P2;PMS_P1;PMS_P2;Temp;Humidity;BMP_temperature;BMP_pressure;BME280_temperature;BME280_humidity;BME280_pressure;Samples;Min_cycle;Max_cycle;Signal;HPM_P1;HPM_P2
2021/09/05 00:00:22;;;;;;;4.53;3.22;;;;;;;;;;4464314;32;20231;-52
2021/09/05 00:02:47;;;;;;;4.65;3.50;;;;;;;;;;4465479;32;20731;-52
2021/09/05 00:05:13;;;;;;;5.60;3.50;;;;;;;;;;4465583;32;20280;-54
2021/09/05 00:07:38;;;;;;;9.07;3.08;;;;;;;;;;4465177;32;20295;-53
2021/09/05 00:10:04;;;;;;;4.20;3.42;;;;;;;;;;4465348;32;20309;-52
2021/09/05 00:12:30;;;;;;;5.28;3.37;;;;;;;;;;4465495;32;20347;-52
2021/09/05 00:14:56;;;;;;;9.40;4.50;;;;;;;;;;4449948;32;20725;-51
2021/09/05 00:17:21;;;;;;;5.28;3.30;;;;;;;;;;4449869;32;20756;-52
2021/09/05 00:19:47;;;;;;;4.85;3.42;;;;;;;;;;4449567;32;20588;-51
2021/09/05 00:22:12;;;;;;;4.68;3.53;;;;;;;;;;4449781;32;20691;-51
2021/09/05 00:24:37;;;;;;;6.40;4.22;;;;;;;;;;4449381;32;20296;-51
2021/09/05 00:27:04;;;;;;;5.93;3.80;;;;;;;;;;4449883;32;20290;-52
2021/09/05 00:29:29;;;;;;;4.50;3.55;;;;;;;;;;4449231;32;20298;-50
2021/09/05 00:31:55;;;;;;;4.37;3.17;;;;;;;;;;4451766;32;20381;-52
2021/09/05 00:34:20;;;;;;;5.18;4.00;;;;;;;;;;4465303;32;20239;-51
2021/09/05 00:36:46;;;;;;;6.12;3.67;;;;;;;;;;4464920;32;20276;-50
2021/09/05 00:39:11;;;;;;;4.62;3.67;;;;;;;;;;4465014;32;20609;-51
2021/09/05 00:41:36;;;;;;;6.87;3.42;;;;;;;;;;4464726;32;20271;-51
2021/09/05 00:44:10;;;;;;;6.57;3.92;;;;;;;;;;4465092;32;20409;-51
2021/09/05 00:46:37;;;;;;;5.93;4.20;;;;;;;;;;4464738;32;20200;-51
2021/09/05 00:49:04;;;;;;;6.50;3.15;;;;;;;;;;4464816;32;20231;-51
2021/09/05 00:51:32;;;;;;;4.65;3.25;;;;;;;;;;4464698;32;20346;-52
2021/09/05 00:53:58;;;;;;;4.62;3.20;;;;;;;;;;4464791;32;20700;-51
2021/09/05 00:56:29;;;;;;;6.43;3.60;;;;;;;;;;4464702;32;20220;-51
2021/09/05 00:59:02;;;;;;;4.93;3.90;;;;;;;;;;4464663;32;20249;-51
2021/09/05 01:01:28;;;;;;;3.97;3.25;;;;;;;;;;4464873;32;20620;-51
2021/09/05 01:03:54;;;;;;;4.22;3.22;;;;;;;;;;4464495;32;20568;-52
2021/09/05 01:06:20;;;;;;;5.22;3.67;;;;;;;;;;4455147;32;20360;-50
2021/09/05 01:08:47;;;;;;;7.85;3.83;;;;;;;;;;4448866;32;20224;-50
2021/09/05 01:11:14;;;;;;;10.48;3.95;;;;;;;;;;4448797;32;20432;-51
2021/09/05 01:13:40;;;;;;;5.60;3.87;;;;;;;;;;4455233;32;20217;-51
2021/09/05 01:16:05;;;;;;;5.87;3.78;;;;;;;;;;4464413;32;20275;-51
2021/09/05 01:18:31;;;;;;;5.87;3.83;;;;;;;;;;4464047;32;20572;-50
2021/09/05 01:20:56;;;;;;;3.95;2.92;;;;;;;;;;4464102;32;20466;-52
2021/09/05 01:23:22;;;;;;;7.93;3.67;;;;;;;;;;4462995;32;20232;-51
2021/09/05 01:25:48;;;;;;;5.45;3.40;;;;;;;;;;4464214;32;20317;-50
2021/09/05 01:28:13;;;;;;;5.25;3.95;;;;;;;;;;4462760;32;20461;-50
2021/09/05 01:30:39;;;;;;;5.55;4.12;;;;;;;;;;4464218;32;20287;-50
2021/09/05 01:33:05;;;;;;;8.20;3.67;;;;;;;;;;4464098;32;20541;-50
2021/09/05 01:35:35;;;;;;;4.72;3.72;;;;;;;;;;4463649;32;20208;-51
2021/09/05 01:38:00;;;;;;;5.70;3.83;;;;;;;;;;4464261;32;20322;-51
2021/09/05 01:40:26;;;;;;;9.93;4.55;;;;;;;;;;4463823;32;20783;-51
2021/09/05 01:42:51;;;;;;;9.95;5.72;;;;;;;;;;4464195;32;20256;-51
2021/09/05 01:45:17;;;;;;;9.68;6.15;;;;;;;;;;4463814;32;20296;-51
2021/09/05 01:47:42;;;;;;;10.48;5.45;;;;;;;;;;4463500;32;20780;-51
2021/09/05 01:50:08;;;;;;;9.32;5.30;;;;;;;;;;4462326;32;20228;-51
2021/09/05 01:52:34;;;;;;;7.93;4.90;;;;;;;;;;4463870;32;20382;-53
2021/09/05 01:54:59;;;;;;;6.35;4.45;;;;;;;;;;4463838;32;20319;-51
2021/09/05 01:57:25;;;;;;;11.65;4.50;;;;;;;;;;4464738;32;20299;-51
2021/09/05 01:59:50;;;;;;;5.07;4.00;;;;;;;;;;4464403;32;20242;-52
2021/09/05 02:02:16;;;;;;;5.93;3.83;;;;;;;;;;4457822;32;20310;-51
2021/09/05 02:04:41;;;;;;;6.95;4.05;;;;;;;;;;4448226;32;20236;-52
2021/09/05 02:07:06;;;;;;;5.18;3.78;;;;;;;;;;4446695;32;20305;-51
2021/09/05 02:09:32;;;;;;;6.18;3.85;;;;;;;;;;4447657;32;20363;-52
2021/09/05 02:11:57;;;;;;;4.90;3.72;;;;;;;;;;4448175;32;20678;-52
2021/09/05 02:14:23;;;;;;;7.90;3.58;;;;;;;;;;4458273;32;20580;-52
2021/09/05 02:16:48;;;;;;;5.00;4.00;;;;;;;;;;4463560;32;20687;-51
2021/09/05 02:19:14;;;;;;;7.10;3.67;;;;;;;;;;4463522;32;20324;-51
2021/09/05 02:21:39;;;;;;;4.95;3.83;;;;;;;;;;4461912;32;20299;-50
2021/09/05 02:24:05;;;;;;;6.75;4.53;;;;;;;;;;4463551;32;20250;-51
2021/09/05 02:26:30;;;;;;;4.90;3.83;;;;;;;;;;4463646;32;20275;-50
2021/09/05 02:28:56;;;;;;;5.65;4.15;;;;;;;;;;4463592;32;20274;-50
2021/09/05 02:31:21;;;;;;;5.72;3.70;;;;;;;;;;4463869;32;20572;-51
2021/09/05 02:33:47;;;;;;;7.72;3.97;;;;;;;;;;4463185;32;20637;-51
2021/09/05 02:36:12;;;;;;;4.87;3.53;;;;;;;;;;4463501;32;20317;-50
2021/09/05 02:38:38;;;;;;;4.87;3.92;;;;;;;;;;4463498;32;20617;-51
2021/09/05 02:41:03;;;;;;;4.93;3.67;;;;;;;;;;4463539;32;20706;-51
2021/09/05 02:43:29;;;;;;;6.32;4.22;;;;;;;;;;4463563;32;20341;-51
2021/09/05 02:45:54;;;;;;;4.78;4.03;;;;;;;;;;4463286;32;20469;-51
2021/09/05 02:48:20;;;;;;;6.00;3.78;;;;;;;;;;4463303;32;20247;-51
2021/09/05 02:50:45;;;;;;;5.03;3.50;;;;;;;;;;4461861;32;20761;-53
2021/09/05 02:53:11;;;;;;;5.00;3.78;;;;;;;;;;4463272;32;20332;-51
2021/09/05 02:55:36;;;;;;;9.63;4.85;;;;;;;;;;4461994;32;20332;-52
2021/09/05 02:58:01;;;;;;;6.22;4.35;;;;;;;;;;4460491;32;20292;-51
2021/09/05 03:00:27;;;;;;;13.68;4.47;;;;;;;;;;4447750;32;20217;-52
2021/09/05 03:02:53;;;;;;;7.25;5.20;;;;;;;;;;4447481;32;20641;-52
2021/09/05 03:05:18;;;;;;;9.43;5.60;;;;;;;;;;4447448;32;20841;-50
2021/09/05 03:07:43;;;;;;;6.90;5.05;;;;;;;;;;4447518;32;20532;-52
2021/09/05 03:10:10;;;;;;;10.13;4.35;;;;;;;;;;4447316;32;20746;-51
2021/09/05 03:12:35;;;;;;;5.60;4.15;;;;;;;;;;4447358;32;20283;-53
2021/09/05 03:15:00;;;;;;;9.00;4.78;;;;;;;;;;4462458;32;20250;-51
2021/09/05 03:17:27;;;;;;;6.53;4.62;;;;;;;;;;4462982;32;20279;-51
2021/09/05 03:19:52;;;;;;;6.57;4.35;;;;;;;;;;4462749;32;20279;-51
2021/09/05 03:22:18;;;;;;;7.53;4.80;;;;;;;;;;4463009;32;20279;-53
2021/09/05 03:24:43;;;;;;;4.90;3.72;;;;;;;;;;4461833;32;20691;-52
2021/09/05 03:27:09;;;;;;;9.70;7.20;;;;;;;;;;4465809;32;20353;-51
2021/09/05 03:29:34;;;;;;;12.93;6.05;;;;;;;;;;4465703;32;20240;-52
2021/09/05 03:32:00;;;;;;;10.50;6.55;;;;;;;;;;4466217;32;20267;-52
2021/09/05 03:34:25;;;;;;;12.82;8.00;;;;;;;;;;4465635;32;20251;-51
2021/09/05 03:36:51;;;;;;;9.15;7.25;;;;;;;;;;4466060;32;20289;-51
2021/09/05 03:39:16;;;;;;;10.68;6.95;;;;;;;;;;4465872;32;20579;-51
2021/09/05 03:41:42;;;;;;;10.30;6.97;;;;;;;;;;4464712;32;20299;-51
2021/09/05 03:44:07;;;;;;;10.18;6.28;;;;;;;;;;4465920;32;20287;-51
2021/09/05 03:46:33;;;;;;;9.55;5.82;;;;;;;;;;4465555;32;20714;-51
2021/09/05 03:48:58;;;;;;;8.77;4.55;;;;;;;;;;4465534;32;20298;-51
2021/09/05 03:51:24;;;;;;;9.60;5.12;;;;;;;;;;4465480;32;20279;-50
2021/09/05 03:53:49;;;;;;;5.30;4.80;;;;;;;;;;4465555;32;20235;-51
2021/09/05 03:56:14;;;;;;;9.48;4.97;;;;;;;;;;4450113;32;20295;-51
2021/09/05 03:58:40;;;;;;;5.32;4.05;;;;;;;;;;4450116;32;20248;-51
2021/09/05 04:01:05;;;;;;;5.20;4.12;;;;;;;;;;4449978;32;20268;-51
2021/09/05 04:03:31;;;;;;;10.75;5.70;;;;;;;;;;4449651;32;20251;-51
2021/09/05 04:05:56;;;;;;;6.85;5.00;;;;;;;;;;4449712;32;20335;-52
2021/09/05 04:11:06;;;;;;;9.52;5.15;;;;;;;;;;4449634;32;20264;-52
2021/09/05 04:13:31;;;;;;;6.80;4.53;;;;;;;;;;4449013;32;20240;-51
2021/09/05 04:15:57;;;;;;;7.68;5.03;;;;;;;;;;4449747;32;20288;-53
2021/09/05 04:18:22;;;;;;;7.03;4.22;;;;;;;;;;4449391;32;20778;-51
2021/09/05 04:20:48;;;;;;;7.78;4.75;;;;;;;;;;4449929;32;20312;-52
2021/09/05 04:23:14;;;;;;;11.93;7.07;;;;;;;;;;4449749;32;20221;-52
2021/09/05 04:25:40;;;;;;;11.12;8.18;;;;;;;;;;4449610;32;20298;-51
2021/09/05 04:28:06;;;;;;;10.50;6.55;;;;;;;;;;4449392;32;20256;-52
2021/09/05 04:30:31;;;;;;;6.40;5.10;;;;;;;;;;4449090;32;20250;-52
2021/09/05 04:32:57;;;;;;;5.72;4.75;;;;;;;;;;4458326;32;20370;-52
2021/09/05 04:35:22;;;;;;;7.25;4.90;;;;;;;;;;4464576;32;20288;-51
2021/09/05 04:37:48;;;;;;;5.87;4.62;;;;;;;;;;4464548;32;20298;-52
2021/09/05 04:40:13;;;;;;;5.18;4.45;;;;;;;;;;4464905;32;20694;-52
2021/09/05 04:42:39;;;;;;;10.27;4.35;;;;;;;;;;4465219;32;20312;-52
2021/09/05 04:45:05;;;;;;;10.85;4.25;;;;;;;;;;4465245;32;20303;-51
2021/09/05 04:47:30;;;;;;;8.77;5.28;;;;;;;;;;4464708;32;20305;-53
2021/09/05 04:49:55;;;;;;;5.30;3.92;;;;;;;;;;4464802;32;20767;-51
2021/09/05 04:52:21;;;;;;;5.43;4.20;;;;;;;;;;4450311;32;20714;-51
2021/09/05 04:54:46;;;;;;;6.43;4.25;;;;;;;;;;4449335;32;20323;-51
2021/09/05 04:57:12;;;;;;;5.20;4.57;;;;;;;;;;4449518;32;20279;-52
2021/09/05 04:59:37;;;;;;;7.32;4.95;;;;;;;;;;4449032;32;20220;-52
2021/09/05 05:02:03;;;;;;;10.85;4.78;;;;;;;;;;4448989;32;20692;-52
2021/09/05 05:04:28;;;;;;;11.38;4.45;;;;;;;;;;4448646;32;20786;-51
2021/09/05 05:06:54;;;;;;;5.68;3.72;;;;;;;;;;4447944;32;20341;-51
2021/09/05 05:09:22;;;;;;;5.37;3.67;;;;;;;;;;4447796;32;20303;-51
2021/09/05 05:11:47;;;;;;;5.10;4.20;;;;;;;;;;4448860;32;20240;-51
2021/09/05 05:14:14;;;;;;;5.97;4.03;;;;;;;;;;4458981;32;20294;-51
2021/09/05 05:16:39;;;;;;;4.95;4.05;;;;;;;;;;4464309;32;20326;-51
2021/09/05 05:19:05;;;;;;;9.48;4.68;;;;;;;;;;4464266;32;20741;-50
2021/09/05 05:21:31;;;;;;;4.43;3.90;;;;;;;;;;4464442;32;20338;-51
2021/09/05 05:23:58;;;;;;;8.48;4.85;;;;;;;;;;4464133;32;20208;-51
2021/09/05 05:26:24;;;;;;;9.75;4.90;;;;;;;;;;4464164;32;20644;-51
2021/09/05 05:28:50;;;;;;;7.82;4.72;;;;;;;;;;4464060;32;20256;-50
2021/09/05 05:31:16;;;;;;;8.93;4.93;;;;;;;;;;4464312;32;20370;-52
2021/09/05 05:33:42;;;;;;;10.30;5.20;;;;;;;;;;4463731;32;20269;-51
2021/09/05 05:36:08;;;;;;;10.13;6.15;;;;;;;;;;4463939;32;20350;-52
2021/09/05 05:38:33;;;;;;;11.12;5.78;;;;;;;;;;4464016;32;20276;-51
2021/09/05 05:40:59;;;;;;;10.43;6.28;;;;;;;;;;4464023;32;20309;-52
2021/09/05 05:43:24;;;;;;;6.72;5.28;;;;;;;;;;4464130;32;20502;-51
2021/09/05 05:45:50;;;;;;;10.10;6.25;;;;;;;;;;4464211;32;20324;-53
2021/09/05 05:48:15;;;;;;;9.73;5.57;;;;;;;;;;4451321;32;20249;-51
2021/09/05 05:50:45;;;;;;;7.18;5.18;;;;;;;;;;4448174;32;20613;-51
2021/09/05 05:53:10;;;;;;;7.68;5.47;;;;;;;;;;4448472;32;20587;-50
2021/09/05 05:55:36;;;;;;;7.78;4.97;;;;;;;;;;4448540;32;20326;-51
2021/09/05 05:58:02;;;;;;;6.40;5.28;;;;;;;;;;4448174;32;20279;-51
2021/09/05 06:00:27;;;;;;;8.63;5.82;;;;;;;;;;4448009;32;20553;-51
2021/09/05 06:02:54;;;;;;;12.52;6.03;;;;;;;;;;4448080;32;20204;-52
2021/09/05 06:05:20;;;;;;;9.77;6.32;;;;;;;;;;4448169;32;20295;-51
2021/09/05 06:07:45;;;;;;;6.43;5.00;;;;;;;;;;4448075;32;20367;-51
2021/09/05 06:10:11;;;;;;;6.50;5.35;;;;;;;;;;4447940;32;20273;-51
2021/09/05 06:12:37;;;;;;;17.92;5.72;;;;;;;;;;4447582;32;20283;-52
2021/09/05 06:15:03;;;;;;;9.13;5.37;;;;;;;;;;4463398;32;20244;-52
2021/09/05 06:17:28;;;;;;;17.52;5.35;;;;;;;;;;4463602;32;20287;-51
2021/09/05 06:19:54;;;;;;;7.87;5.28;;;;;;;;;;4463520;32;20529;-52
2021/09/05 06:22:19;;;;;;;7.68;5.12;;;;;;;;;;4463856;32;20329;-51
2021/09/05 06:24:45;;;;;;;10.88;6.10;;;;;;;;;;4462425;32;20244;-52
2021/09/05 06:27:10;;;;;;;5.75;4.70;;;;;;;;;;4463928;32;20271;-52
2021/09/05 06:29:36;;;;;;;6.40;4.72;;;;;;;;;;4463492;32;20232;-51
2021/09/05 06:32:01;;;;;;;9.13;4.25;;;;;;;;;;4460740;32;20287;-53
2021/09/05 06:34:26;;;;;;;6.55;4.32;;;;;;;;;;4447419;32;20217;-51
2021/09/05 06:36:52;;;;;;;6.82;4.30;;;;;;;;;;4447775;32;20330;-51
2021/09/05 06:39:17;;;;;;;5.07;4.32;;;;;;;;;;4446450;32;20282;-51
2021/09/05 06:41:43;;;;;;;6.80;4.72;;;;;;;;;;4447954;32;20811;-51
2021/09/05 06:44:08;;;;;;;8.52;4.05;;;;;;;;;;4447897;32;20362;-51
2021/09/05 06:46:34;;;;;;;6.90;4.72;;;;;;;;;;4447683;32;20339;-52
2021/09/05 06:48:59;;;;;;;6.57;4.82;;;;;;;;;;4447937;32;20555;-51
2021/09/05 06:51:25;;;;;;;8.25;4.70;;;;;;;;;;4448224;32;20301;-51
2021/09/05 06:53:50;;;;;;;7.47;3.58;;;;;;;;;;4448078;32;20255;-51
2021/09/05 06:56:16;;;;;;;6.25;4.78;;;;;;;;;;4448220;32;20290;-50
2021/09/05 06:58:41;;;;;;;8.13;5.20;;;;;;;;;;4447860;32;20697;-51
2021/09/05 07:01:07;;;;;;;9.40;5.35;;;;;;;;;;4449229;32;20903;-52
2021/09/05 07:03:32;;;;;;;7.68;5.05;;;;;;;;;;4450496;32;20343;-50
2021/09/05 07:05:58;;;;;;;9.63;4.40;;;;;;;;;;4450863;32;20298;-51
2021/09/05 07:08:23;;;;;;;7.68;4.97;;;;;;;;;;4450581;32;20231;-51
2021/09/05 07:10:49;;;;;;;9.95;5.22;;;;;;;;;;4450872;32;20360;-51
2021/09/05 07:13:14;;;;;;;6.28;4.32;;;;;;;;;;4454267;32;20258;-50
2021/09/05 07:15:40;;;;;;;5.82;4.07;;;;;;;;;;4466110;32;20803;-51
2021/09/05 07:18:05;;;;;;;10.02;4.45;;;;;;;;;;4465935;32;20279;-51
2021/09/05 07:20:31;;;;;;;14.13;7.03;;;;;;;;;;4466042;32;20549;-51
2021/09/05 07:22:57;;;;;;;8.35;4.47;;;;;;;;;;4465799;32;20295;-52
2021/09/05 07:25:25;;;;;;;7.32;4.00;;;;;;;;;;4466572;32;20192;-50
2021/09/05 07:27:50;;;;;;;8.48;3.90;;;;;;;;;;4465891;32;20208;-51
2021/09/05 07:30:16;;;;;;;6.95;4.03;;;;;;;;;;4465679;32;20726;-51
2021/09/05 07:32:42;;;;;;;8.15;4.72;;;;;;;;;;4465664;32;20291;-53
2021/09/05 07:35:08;;;;;;;6.07;4.07;;;;;;;;;;4465628;32;20322;-51
2021/09/05 07:37:34;;;;;;;6.87;4.00;;;;;;;;;;4465602;32;20702;-52
2021/09/05 07:39:59;;;;;;;5.65;4.30;;;;;;;;;;4457148;32;20379;-51
2021/09/05 07:42:25;;;;;;;5.95;4.40;;;;;;;;;;4450337;32;20267;-51
2021/09/05 07:44:51;;;;;;;5.60;4.25;;;;;;;;;;4450196;32;20327;-51
2021/09/05 07:47:16;;;;;;;6.93;4.43;;;;;;;;;;4450160;32;20336;-52
2021/09/05 07:49:42;;;;;;;7.07;4.20;;;;;;;;;;4449961;32;20308;-51
2021/09/05 07:52:07;;;;;;;10.05;4.37;;;;;;;;;;4450105;32;20287;-51
2021/09/05 07:54:33;;;;;;;5.37;4.50;;;;;;;;;;4450166;32;20232;-51
2021/09/05 07:56:58;;;;;;;10.45;4.78;;;;;;;;;;4449331;32;20327;-52
2021/09/05 07:59:24;;;;;;;5.95;3.92;;;;;;;;;;4448676;32;20255;-52
2021/09/05 08:01:49;;;;;;;5.85;4.43;;;;;;;;;;4450142;32;20680;-50
2021/09/05 08:04:15;;;;;;;6.90;4.30;;;;;;;;;;4450057;32;20216;-50
2021/09/05 08:06:40;;;;;;;7.70;4.40;;;;;;;;;;4450035;32;20761;-51
2021/09/05 08:09:06;;;;;;;5.22;3.47;;;;;;;;;;4450202;32;20542;-51
2021/09/05 08:11:31;;;;;;;5.20;3.95;;;;;;;;;;4449291;32;20271;-51
2021/09/05 08:13:57;;;;;;;6.32;4.15;;;;;;;;;;4457887;32;20246;-52
2021/09/05 08:16:22;;;;;;;4.57;3.42;;;;;;;;;;4465609;32;20576;-51
2021/09/05 08:18:48;;;;;;;5.78;3.75;;;;;;;;;;4465073;32;20244;-51
2021/09/05 08:21:14;;;;;;;8.10;4.00;;;;;;;;;;4465656;32;20287;-52
2021/09/05 08:23:41;;;;;;;8.98;4.07;;;;;;;;;;4465309;32;20216;-51
2021/09/05 08:26:07;;;;;;;5.57;3.87;;;;;;;;;;4465685;32;20192;-52
2021/09/05 08:28:33;;;;;;;5.50;4.00;;;;;;;;;;4465089;32;20319;-51
2021/09/05 08:30:59;;;;;;;4.65;3.50;;;;;;;;;;4465261;32;20263;-52
2021/09/05 08:33:24;;;;;;;8.45;4.15;;;;;;;;;;4464640;32;20243;-52
2021/09/05 08:35:50;;;;;;;6.15;3.85;;;;;;;;;;4460142;32;20267;-52
2021/09/05 08:38:16;;;;;;;6.30;4.18;;;;;;;;;;4449737;32;20422;-52
2021/09/05 08:40:44;;;;;;;4.90;3.17;;;;;;;;;;4449532;32;20462;-52
2021/09/05 08:43:10;;;;;;;6.45;3.75;;;;;;;;;;4449876;32;20735;-52
2021/09/05 08:45:37;;;;;;;8.90;3.45;;;;;;;;;;4449316;32;20259;-52
2021/09/05 08:48:04;;;;;;;8.02;4.05;;;;;;;;;;4449309;32;20280;-52
2021/09/05 08:50:30;;;;;;;6.10;4.10;;;;;;;;;;4449048;32;20712;-52
2021/09/05 08:52:55;;;;;;;5.75;3.95;;;;;;;;;;4449384;32;20272;-52
2021/09/05 08:55:21;;;;;;;4.75;3.55;;;;;;;;;;4449576;32;20208;-52
2021/09/05 08:57:47;;;;;;;4.40;3.25;;;;;;;;;;4449207;32;20619;-52
2021/09/05 09:00:12;;;;;;;9.02;4.22;;;;;;;;;;4449502;32;20399;-51
2021/09/05 09:02:49;;;;;;;7.20;4.40;;;;;;;;;;4449197;32;20319;-51
2021/09/05 09:05:28;;;;;;;5.45;3.90;;;;;;;;;;4449406;32;20243;-52
2021/09/05 09:07:58;;;;;;;6.80;5.07;;;;;;;;;;4449207;32;20197;-52
2021/09/05 09:10:23;;;;;;;9.00;5.15;;;;;;;;;;4449182;32;20193;-52
2021/09/05 09:12:49;;;;;;;5.80;3.40;;;;;;;;;;4450012;32;20666;-53
2021/09/05 09:15:29;;;;;;;5.40;4.03;;;;;;;;;;4464589;32;20553;-52
2021/09/05 09:18:00;;;;;;;9.60;4.07;;;;;;;;;;4464536;32;20692;-52
2021/09/05 09:20:43;;;;;;;4.70;3.92;;;;;;;;;;4464933;32;20269;-52
2021/09/05 09:23:16;;;;;;;5.43;3.58;;;;;;;;;;4464625;32;20219;-52
2021/09/05 09:25:53;;;;;;;5.00;4.10;;;;;;;;;;4464336;32;20274;-53
2021/09/05 09:28:45;;;;;;;6.43;4.55;;;;;;;;;;4464738;32;20636;-52
2021/09/05 09:31:16;;;;;;;6.18;4.05;;;;;;;;;;4462042;32;20659;-52
2021/09/05 09:33:45;;;;;;;10.52;4.68;;;;;;;;;;4462736;32;20228;-52
2021/09/05 09:36:14;;;;;;;6.10;3.20;;;;;;;;;;4464638;32;20192;-52
2021/09/05 09:38:45;;;;;;;5.53;4.15;;;;;;;;;;4464120;32;20228;-52
2021/09/05 09:41:13;;;;;;;5.30;3.80;;;;;;;;;;4464886;32;20192;-51
2021/09/05 09:43:58;;;;;;;6.07;4.32;;;;;;;;;;4459310;32;20220;-51
2021/09/05 09:46:26;;;;;;;4.30;3.00;;;;;;;;;;4450154;32;20208;-51
2021/09/05 09:48:57;;;;;;;5.43;4.12;;;;;;;;;;4447582;32;20227;-51
2021/09/05 09:51:23;;;;;;;4.60;3.60;;;;;;;;;;4451993;32;20251;-51
2021/09/05 09:53:51;;;;;;;5.93;3.67;;;;;;;;;;4464168;32;20572;-51
2021/09/05 09:56:18;;;;;;;4.97;3.53;;;;;;;;;;4464288;32;20572;-51
2021/09/05 09:58:55;;;;;;;3.28;2.75;;;;;;;;;;4463729;32;20243;-52
2021/09/05 10:01:22;;;;;;;6.53;3.92;;;;;;;;;;4463123;32;20234;-51
2021/09/05 10:03:50;;;;;;;5.70;2.87;;;;;;;;;;4463676;32;20260;-51
2021/09/05 10:06:16;;;;;;;5.25;4.22;;;;;;;;;;4463859;32;20553;-52
2021/09/05 10:08:43;;;;;;;6.50;3.35;;;;;;;;;;4463647;32;20306;-51
2021/09/05 10:11:10;;;;;;;5.75;3.97;;;;;;;;;;4463826;32;20216;-52
2021/09/05 10:13:39;;;;;;;7.10;4.78;;;;;;;;;;4463490;32;20237;-52
2021/09/05 10:16:05;;;;;;;5.03;3.58;;;;;;;;;;4449437;32;20248;-52
2021/09/05 10:18:33;;;;;;;7.37;3.58;;;;;;;;;;4462776;32;20221;-51
2021/09/05 10:20:59;;;;;;;4.25;3.33;;;;;;;;;;4463640;32;20577;-51
2021/09/05 10:23:49;;;;;;;7.72;3.70;;;;;;;;;;4463877;32;20244;-52
2021/09/05 10:26:16;;;;;;;4.75;2.75;;;;;;;;;;4464088;32;20258;-51
2021/09/05 10:28:47;;;;;;;5.87;3.90;;;;;;;;;;4463415;32;20252;-52
2021/09/05 10:31:23;;;;;;;4.35;3.80;;;;;;;;;;4449522;32;20217;-52
2021/09/05 10:33:48;;;;;;;4.75;3.67;;;;;;;;;;4461440;32;20211;-51
2021/09/05 10:36:22;;;;;;;6.60;3.65;;;;;;;;;;4463318;32;20349;-54
2021/09/05 10:38:49;;;;;;;5.78;4.10;;;;;;;;;;4463890;32;20224;-52
2021/09/05 10:41:20;;;;;;;5.18;3.37;;;;;;;;;;4463468;32;20759;-53
2021/09/05 10:43:49;;;;;;;4.75;3.22;;;;;;;;;;4463903;32;20240;-52
2021/09/05 10:46:26;;;;;;;5.55;4.32;;;;;;;;;;4462503;32;20386;-54
2021/09/05 10:48:52;;;;;;;6.30;3.40;;;;;;;;;;4463416;32;20246;-51
2021/09/05 10:51:28;;;;;;;5.70;3.62;;;;;;;;;;4463095;32;20295;-52
2021/09/05 10:53:56;;;;;;;5.10;3.60;;;;;;;;;;4463279;32;20391;-53
2021/09/05 10:56:26;;;;;;;7.78;4.03;;;;;;;;;;4463657;32;20275;-52
2021/09/05 10:58:56;;;;;;;7.45;3.62;;;;;;;;;;4463277;32;20604;-52
2021/09/05 11:01:35;;;;;;;5.12;3.75;;;;;;;;;;4463211;32;20259;-52
2021/09/05 11:04:10;;;;;;;5.22;4.18;;;;;;;;;;4463727;32;20588;-52
2021/09/05 11:06:37;;;;;;;4.57;2.87;;;;;;;;;;4463163;32;20883;-54
2021/09/05 11:09:22;;;;;;;6.05;3.45;;;;;;;;;;4461983;32;20367;-52
2021/09/05 11:12:03;;;;;;;3.55;3.12;;;;;;;;;;4463541;32;20208;-52
2021/09/05 11:14:35;;;;;;;5.65;4.15;;;;;;;;;;4462942;32;20228;-52
2021/09/05 11:17:01;;;;;;;9.02;3.47;;;;;;;;;;4463095;32;20267;-51
2021/09/05 11:19:27;;;;;;;9.15;3.37;;;;;;;;;;4463242;32;20243;-52
2021/09/05 11:21:53;;;;;;;6.55;4.55;;;;;;;;;;4463490;32;20274;-52
2021/09/05 11:24:18;;;;;;;3.87;3.20;;;;;;;;;;4463142;32;20649;-51
2021/09/05 11:27:00;;;;;;;4.30;3.33;;;;;;;;;;4463441;32;20656;-51
2021/09/05 11:29:27;;;;;;;5.53;3.42;;;;;;;;;;4463305;32;20292;-52
2021/09/05 11:32:01;;;;;;;4.87;3.42;;;;;;;;;;4461143;32;20263;-53
2021/09/05 11:34:27;;;;;;;7.18;4.12;;;;;;;;;;4446564;32;20296;-52
2021/09/05 11:36:53;;;;;;;5.37;4.03;;;;;;;;;;4447806;32;20283;-52
2021/09/05 11:39:19;;;;;;;4.62;3.45;;;;;;;;;;4447806;32;20659;-52
2021/09/05 11:41:44;;;;;;;4.05;3.12;;;;;;;;;;4447385;32;20332;-53
2021/09/05 11:44:10;;;;;;;3.60;3.05;;;;;;;;;;4447890;32;20657;-52
2021/09/05 11:46:35;;;;;;;4.22;3.22;;;;;;;;;;4448328;32;20665;-53
2021/09/05 11:49:03;;;;;;;3.85;3.03;;;;;;;;;;4449735;32;20569;-52
2021/09/05 11:51:30;;;;;;;3.92;3.17;;;;;;;;;;4449603;32;20197;-53
2021/09/05 11:53:59;;;;;;;5.85;3.10;;;;;;;;;;4450023;32;20233;-52
2021/09/05 11:56:26;;;;;;;4.40;3.45;;;;;;;;;;4449945;32;20537;-53
2021/09/05 11:58:51;;;;;;;4.80;3.65;;;;;;;;;;4450304;32;20233;-51
2021/09/05 12:01:17;;;;;;;4.35;3.15;;;;;;;;;;4449794;32;20306;-53
2021/09/05 12:03:42;;;;;;;4.72;3.67;;;;;;;;;;4450072;32;20252;-52
2021/09/05 12:06:10;;;;;;;4.05;3.05;;;;;;;;;;4450520;32;20279;-53
2021/09/05 12:08:40;;;;;;;4.78;3.37;;;;;;;;;;4449792;32;20236;-53
2021/09/05 12:11:07;;;;;;;4.40;3.40;;;;;;;;;;4449990;32;20201;-53
2021/09/05 12:13:49;;;;;;;6.68;4.55;;;;;;;;;;4449717;32;20365;-54
2021/09/05 12:16:20;;;;;;;6.70;3.72;;;;;;;;;;4449398;32;20220;-54
2021/09/05 12:18:58;;;;;;;4.00;3.20;;;;;;;;;;4449762;32;20256;-53
2021/09/05 12:21:32;;;;;;;9.85;3.45;;;;;;;;;;4449973;32;20256;-53
2021/09/05 12:23:58;;;;;;;4.72;3.30;;;;;;;;;;4449826;32;20211;-53
2021/09/05 12:26:23;;;;;;;4.62;3.40;;;;;;;;;;4449738;32;20322;-54
2021/09/05 12:29:01;;;;;;;7.30;3.72;;;;;;;;;;4449513;32;20636;-52
2021/09/05 12:31:43;;;;;;;7.25;4.25;;;;;;;;;;4449015;32;20252;-53
2021/09/05 12:34:10;;;;;;;4.78;3.15;;;;;;;;;;4449773;32;20228;-52
2021/09/05 12:36:35;;;;;;;5.15;3.37;;;;;;;;;;4449563;32;20624;-51
2021/09/05 12:39:01;;;;;;;5.57;3.30;;;;;;;;;;4449694;32;20256;-52
2021/09/05 12:41:31;;;;;;;5.90;3.42;;;;;;;;;;4449298;32;20699;-53
2021/09/05 12:43:58;;;;;;;4.00;3.37;;;;;;;;;;4449435;32;20660;-53
2021/09/05 12:46:43;;;;;;;4.93;3.37;;;;;;;;;;4449218;32;20579;-53
2021/09/05 12:49:17;;;;;;;4.10;2.78;;;;;;;;;;4449851;32;20675;-53
2021/09/05 12:51:48;;;;;;;3.60;3.03;;;;;;;;;;4455097;32;20294;-53
2021/09/05 12:54:13;;;;;;;6.40;3.10;;;;;;;;;;4464614;32;20418;-53
2021/09/05 12:56:40;;;;;;;5.18;3.65;;;;;;;;;;4463370;32;20345;-52
2021/09/05 12:59:06;;;;;;;4.00;2.62;;;;;;;;;;4464341;32;20228;-53
2021/09/05 13:01:32;;;;;;;3.55;2.92;;;;;;;;;;4464253;32;20315;-55
2021/09/05 13:03:59;;;;;;;5.47;2.95;;;;;;;;;;4464447;32;20647;-53
2021/09/05 13:06:26;;;;;;;5.75;3.58;;;;;;;;;;4464552;32;20196;-53
2021/09/05 13:08:53;;;;;;;5.00;3.53;;;;;;;;;;4464494;32;20266;-53
2021/09/05 13:11:21;;;;;;;4.15;3.05;;;;;;;;;;4464617;32;20216;-52
2021/09/05 13:13:47;;;;;;;7.12;3.08;;;;;;;;;;4464697;32;20254;-52
2021/09/05 13:16:14;;;;;;;5.12;3.22;;;;;;;;;;4464025;32;20295;-53
2021/09/05 13:18:40;;;;;;;4.97;3.20;;;;;;;;;;4464293;32;20510;-51
2021/09/05 13:21:07;;;;;;;8.20;3.20;;;;;;;;;;4464303;32;20231;-53
2021/09/05 13:23:33;;;;;;;3.50;3.00;;;;;;;;;;4464009;32;20840;-52
2021/09/05 13:25:58;;;;;;;4.20;3.15;;;;;;;;;;4463254;32;20371;-52
2021/09/05 13:28:24;;;;;;;5.20;3.10;;;;;;;;;;4464206;32;20636;-51
2021/09/05 13:30:49;;;;;;;7.65;3.00;;;;;;;;;;4464410;32;20280;-52
2021/09/05 13:33:15;;;;;;;4.78;2.90;;;;;;;;;;4464441;32;20699;-52
2021/09/05 13:35:40;;;;;;;3.60;2.42;;;;;;;;;;4464191;32;20831;-54
2021/09/05 13:38:06;;;;;;;7.00;3.05;;;;;;;;;;4464263;32;20283;-52
2021/09/05 13:40:33;;;;;;;4.30;3.40;;;;;;;;;;4455475;32;20273;-52
2021/09/05 13:42:59;;;;;;;6.35;3.50;;;;;;;;;;4448495;32;20232;-52
2021/09/05 13:45:24;;;;;;;6.18;3.45;;;;;;;;;;4448220;32;20244;-53
2021/09/05 13:47:50;;;;;;;3.53;2.62;;;;;;;;;;4448228;32;20272;-54
2021/09/05 13:50:15;;;;;;;4.03;2.97;;;;;;;;;;4448408;32;20255;-53
2021/09/05 13:52:41;;;;;;;9.32;3.75;;;;;;;;;;4462130;32;20283;-53
2021/09/05 13:55:06;;;;;;;2.97;2.62;;;;;;;;;;4462955;32;20278;-51
2021/09/05 13:57:32;;;;;;;8.73;5.55;;;;;;;;;;4462420;32;20343;-51
2021/09/05 13:59:57;;;;;;;10.30;3.80;;;;;;;;;;4462643;32;20251;-52
2021/09/05 14:02:26;;;;;;;5.20;3.37;;;;;;;;;;4463727;32;20263;-52
2021/09/05 14:04:52;;;;;;;5.20;3.33;;;;;;;;;;4463591;32;20287;-51
2021/09/05 14:07:20;;;;;;;4.25;3.42;;;;;;;;;;4462358;32;20775;-53
2021/09/05 14:09:46;;;;;;;7.00;3.28;;;;;;;;;;4463329;32;20332;-52
2021/09/05 14:12:12;;;;;;;3.58;2.90;;;;;;;;;;4463328;32;20755;-52
2021/09/05 14:14:38;;;;;;;6.47;3.62;;;;;;;;;;4463216;32;20227;-52
2021/09/05 14:17:03;;;;;;;4.05;3.47;;;;;;;;;;4463373;32;20327;-52
2021/09/05 14:19:29;;;;;;;4.47;3.33;;;;;;;;;;4463215;32;20422;-51
2021/09/05 14:21:54;;;;;;;5.97;3.70;;;;;;;;;;4463859;32;20644;-53
2021/09/05 14:24:20;;;;;;;7.45;3.70;;;;;;;;;;4463663;32;20219;-51
2021/09/05 14:26:54;;;;;;;4.18;2.92;;;;;;;;;;4463716;32;20306;-51
2021/09/05 14:29:24;;;;;;;3.40;2.95;;;;;;;;;;4463495;32;20299;-51
2021/09/05 14:31:58;;;;;;;5.82;3.10;;;;;;;;;;4463249;32;20291;-51
2021/09/05 14:55:54;;;;;;;4.53;3.30;;;;;;;;;;4447904;32;20249;-52
2021/09/05 14:58:21;;;;;;;9.80;3.95;;;;;;;;;;4447842;32;20220;-52
2021/09/05 15:00:52;;;;;;;5.12;3.20;;;;;;;;;;4447526;32;20499;-53
2021/09/05 15:03:31;;;;;;;3.67;2.80;;;;;;;;;;4447531;32;20260;-52